EDDSLFKB

Guest
Details From EDDS - Stuttgart
To LFKB - Poretta
Flight Number -
Tags Generated
Created
Modified
Stats Distance 368 nm / 681 km
Max Altitude 0 ft / 0 m
Waypoints 3
Social Downloads 1
Likes 0
Share VATSIM

Download

Looking for another format? Having issues loading an existing format? Contact us
Advertisement - Login to hide

Notes

Generated

Route

EDDS BTA LFKB

ID Type Via Altitude Latitude Longitude Leg Dist Tot Dist Heading (true) Name
O EDDS APT - 0 ft / 0 m 48.68573˚ 9.20013˚ - 0 nm - -
BTA VOR - 0 ft / 0 m 42.57369˚ 9.47459˚ 367 nm 367 nm 178° / 178° BASTIA PORETTA VOR-DME
O LFKB APT - 0 ft / 0 m 42.56334˚ 9.47917˚ 0 nm 367 nm 162° / 162° -

Altitude Profile

Advertisement - Login to hide

Weather


0- 5 10 15 20 25 30 35+ Temperature / ° C

Clouds and Precipitation
Forecast for 2017-12-14 12:00 UTC. Updated an hour ago

Ground ~20,000 ft ~40,000 ft Winds

EDDS

Details ICAO EDDS (STR)
Name Stuttgart
Region Germany - Civil
Timezone Europe/Berlin (UTC+1.0)
Stats Elevation 1,273 ft / 388 m (AMSL)
Location 48.689876° 9.221962°
Runways 1
Magnetic Variation 2.523° E

METAR

EDDS 141020Z 22015G27KT 170V250 9999 FEW021 05/M00 Q1002 NOSIG

Decode

TAF

TAF TAF EDDS 140500Z 1406/1506 24015G25KT 9999 SCT025 PROB30 TEMPO 1411/1418 25020G35KT SHRA BKN025CB BECMG 1416/1418 20010KT TEMPO 1418/1502 24015G25KT SHRA BKN025TCU PROB30 TEMPO 1418/1502 25020G35KT 4000 TSRA BKN012 BKN020CB

Decode

Departure Runways

ID Width Length Bearing (true) Bearing (mag) Surface Threshold Offset Overrun Length
07 148 ft / 45 m 10,950 ft / 3,337 m 73.96° 71.44° Concrete 981 ft / 299 m 157 ft / 48 m
25 148 ft / 45 m 10,950 ft / 3,337 m 253.99° 251.47° Concrete 0 ft / 0 m 157 ft / 48 m

LFKB

Details ICAO LFKB (BIA)
Name Bastia Poretta
Region France
Timezone Europe/Paris (UTC+1.0)
Stats Elevation 25 ft / 8 m (AMSL)
Location 42.552508° 9.483709°
Runways 1
Magnetic Variation 2.485° E

METAR

LFKB 141000Z AUTO 36005KT 320V040 CAVOK 14/07 Q1011 TEMPO 25015G25KT

Decode

TAF

TAF TAF LFKB 140800Z 1409/1509 23008KT 9999 FEW040 BKN080 BKN200 TEMPO 1409/1421 25015G25KT TX17/1413Z TN09/1504Z

Decode

Destination Runways

ID Width Length Bearing (true) Bearing (mag) Surface Threshold Offset Overrun Length
16 148 ft / 45 m 8,273 ft / 2,522 m 162.83° 160.35° Concrete 0 ft / 0 m 131 ft / 40 m
34 148 ft / 45 m 8,273 ft / 2,522 m 342.84° 340.36° Concrete 0 ft / 0 m 0 ft / 0 m

Approach Navaids

Runway Type Ident Frequency Range Bearing (true) Bearing (mag) Slope Elevation
34 Localiser BP 111.35 MHz 27 nm / 50 km 342.81° 340.33° - 25 ft / 8 m (AMSL)
34 Glidescope BP 111.35 MHz 27 nm / 50 km 342.81° 340.33° 3.00° 25 ft / 8 m (AMSL)
34 DME BP 111.35 MHz 18 nm / 33 km - - - 69 ft / 21 m (AMSL)

Popular Alternatives